createdAt,value
2019-03-16T00:01:28.369Z,77.40
2019-03-16T00:06:57.986Z,77.40
2019-03-16T00:12:27.595Z,77.70
2019-03-16T00:17:57.405Z,77.10
2019-03-16T00:23:26.933Z,77.20
2019-03-16T00:28:56.663Z,77.10
2019-03-16T00:34:26.587Z,77.00
2019-03-16T00:39:58.935Z,77.00
2019-03-16T00:45:29.412Z,76.70
2019-03-16T00:50:59.163Z,77.50
2019-03-16T00:56:28.732Z,77.50
2019-03-16T01:01:58.626Z,77.50
2019-03-16T01:07:28.166Z,77.50
2019-03-16T01:12:58.814Z,77.30
2019-03-16T01:18:28.300Z,77.30
2019-03-16T01:23:57.935Z,77.20
2019-03-16T01:29:27.427Z,77.00
2019-03-16T01:34:57.112Z,77.10
2019-03-16T01:40:28.957Z,76.90
2019-03-16T01:45:58.292Z,76.70
2019-03-16T01:51:27.689Z,76.70
2019-03-16T01:56:57.459Z,76.60
2019-03-16T02:02:27.106Z,76.50
2019-03-16T02:07:56.689Z,76.50
2019-03-16T02:13:26.319Z,76.60
2019-03-16T02:18:55.906Z,76.60
2019-03-16T02:24:25.373Z,76.60
2019-03-16T02:29:57.628Z,76.90
2019-03-16T02:35:27.154Z,77.40
2019-03-16T02:40:56.742Z,77.60
2019-03-16T02:46:27.326Z,77.90
2019-03-16T02:51:56.893Z,77.80
2019-03-16T02:57:26.467Z,77.70
2019-03-16T03:02:56.022Z,77.70
2019-03-16T03:08:25.472Z,77.10
2019-03-16T03:13:55.057Z,76.70
2019-03-16T03:19:24.502Z,76.50
2019-03-16T03:24:53.991Z,76.00
2019-03-16T03:30:23.606Z,75.70
2019-03-16T03:35:53.011Z,75.40
2019-03-16T03:41:22.479Z,74.90
2019-03-16T03:46:51.808Z,75.00
2019-03-16T03:52:21.228Z,74.60
2019-03-16T03:57:50.726Z,74.30
2019-03-16T04:03:21.978Z,74.00
2019-03-16T04:08:51.796Z,74.00
2019-03-16T04:14:21.487Z,73.90
2019-03-16T04:19:51.002Z,73.80
2019-03-16T04:25:20.481Z,74.00
2019-03-16T04:30:49.877Z,74.20
2019-03-16T04:36:19.247Z,74.20
2019-03-16T04:41:48.676Z,74.20
2019-03-16T04:47:18.321Z,74.50
2019-03-16T04:52:50.923Z,74.40
2019-03-16T04:58:18.827Z,74.30
2019-03-16T05:03:48.546Z,74.20
2019-03-16T05:09:18.072Z,74.00
2019-03-16T05:14:47.537Z,74.00
2019-03-16T05:20:17.185Z,73.60
2019-03-16T05:25:46.601Z,73.30
2019-03-16T05:31:16.037Z,73.20
2019-03-16T05:36:45.602Z,72.90
2019-03-16T05:42:15.161Z,72.80
2019-03-16T05:47:44.835Z,72.40
2019-03-16T05:53:14.184Z,72.10
2019-03-16T05:58:44.658Z,71.70
2019-03-16T06:04:14.079Z,71.50
2019-03-16T06:09:43.709Z,71.10
2019-03-16T06:15:13.354Z,71.00
2019-03-16T06:20:42.988Z,70.90
2019-03-16T06:26:12.557Z,70.70
2019-03-16T06:31:41.928Z,69.60
2019-03-16T06:37:11.367Z,70.40
2019-03-16T06:42:40.781Z,70.30
2019-03-16T06:48:10.608Z,68.80
2019-03-16T06:53:40.132Z,68.70
2019-03-16T06:59:10.890Z,68.80
2019-03-16T07:04:40.421Z,68.50
2019-03-16T07:10:14.642Z,68.60
2019-03-16T07:15:49.803Z,68.80
2019-03-16T07:21:19.416Z,68.80
2019-03-16T07:26:48.786Z,68.30
2019-03-16T07:32:18.140Z,68.00
2019-03-16T07:37:47.680Z,67.80
2019-03-16T07:43:17.199Z,67.80
2019-03-16T07:48:46.562Z,67.80
2019-03-16T07:54:15.968Z,67.70
2019-03-16T07:59:45.453Z,67.50
2019-03-16T08:05:19.105Z,67.00
2019-03-16T08:10:47.122Z,67.20
2019-03-16T08:16:17.285Z,67.10
2019-03-16T08:21:52.779Z,66.90
2019-03-16T08:27:22.530Z,66.40
2019-03-16T08:32:52.130Z,66.00
2019-03-16T08:38:21.605Z,65.70
2019-03-16T08:43:51.215Z,65.60
2019-03-16T08:49:20.604Z,65.20
2019-03-16T08:54:49.987Z,64.70
2019-03-16T09:00:19.521Z,64.30
2019-03-16T09:05:50.052Z,63.70
2019-03-16T09:11:20.533Z,63.40
2019-03-16T09:16:51.585Z,62.90
2019-03-16T09:22:20.971Z,62.60
2019-03-16T09:27:53.119Z,61.90
2019-03-16T09:33:22.952Z,61.70
2019-03-16T09:38:52.722Z,61.40
2019-03-16T09:44:24.669Z,60.90
2019-03-16T09:49:57.402Z,61.00
2019-03-16T09:55:27.088Z,60.70
2019-03-16T10:00:56.714Z,59.90
2019-03-16T10:06:26.118Z,59.60
2019-03-16T10:11:55.600Z,58.90
2019-03-16T10:17:25.089Z,59.00
2019-03-16T10:22:54.938Z,58.80
2019-03-16T10:28:24.576Z,58.50
2019-03-16T10:33:55.170Z,58.60
2019-03-16T10:39:24.802Z,58.20
2019-03-16T10:44:54.391Z,57.30
2019-03-16T10:50:25.661Z,57.50
2019-03-16T10:55:56.780Z,56.90
2019-03-16T11:01:26.441Z,57.00
2019-03-16T11:06:56.615Z,55.40
2019-03-16T11:12:26.310Z,55.20
2019-03-16T11:18:00.292Z,56.40
2019-03-16T11:23:31.540Z,54.60
2019-03-16T11:29:08.853Z,53.80
2019-03-16T11:34:32.916Z,54.40
2019-03-16T11:40:02.654Z,54.10
2019-03-16T11:45:32.112Z,54.60
2019-03-16T11:51:03.249Z,54.20
2019-03-16T11:56:33.105Z,54.20
2019-03-16T12:02:05.493Z,53.40
2019-03-16T12:07:35.300Z,52.90
2019-03-16T12:13:16.456Z,52.80
2019-03-16T12:18:37.186Z,52.90
2019-03-16T12:24:06.567Z,52.60
2019-03-16T12:29:36.112Z,53.10
2019-03-16T12:35:07.873Z,53.40
2019-03-16T12:40:37.375Z,53.60
2019-03-16T12:46:07.915Z,53.00
2019-03-16T12:51:37.385Z,53.20
2019-03-16T12:57:06.969Z,53.40
2019-03-16T13:02:37.442Z,53.30
2019-03-16T13:08:06.795Z,53.80
2019-03-16T13:13:36.198Z,53.90
2019-03-16T13:19:06.663Z,54.00
2019-03-16T13:24:36.094Z,53.60
2019-03-16T13:30:17.777Z,53.50
2019-03-16T13:35:47.180Z,53.00
2019-03-16T13:41:16.599Z,52.30
2019-03-16T13:46:46.125Z,52.10
2019-03-16T13:52:15.553Z,51.20
2019-03-16T13:57:45.185Z,50.70
2019-03-16T14:03:17.475Z,49.70
2019-03-16T14:08:46.933Z,49.10
2019-03-16T14:14:16.387Z,48.90
2019-03-16T14:19:45.888Z,48.20
2019-03-16T14:25:15.484Z,47.90
2019-03-16T14:30:45.329Z,48.00
2019-03-16T14:36:15.085Z,47.20
2019-03-16T14:41:51.675Z,47.40
2019-03-16T14:47:21.099Z,46.20
2019-03-16T14:52:50.427Z,43.30
2019-03-16T14:58:19.951Z,41.60
2019-03-16T15:03:49.454Z,36.00
2019-03-16T15:09:18.964Z,32.70
2019-03-16T15:14:48.291Z,31.80
2019-03-16T15:20:17.850Z,30.00
2019-03-16T15:25:47.273Z,29.80
2019-03-16T15:31:17.700Z,29.40
2019-03-16T15:36:47.157Z,29.50
2019-03-16T15:42:16.478Z,29.80
2019-03-16T15:47:46.007Z,31.10
2019-03-16T15:53:15.811Z,31.20
2019-03-16T15:58:45.153Z,31.00
2019-03-16T16:04:15.545Z,30.60
2019-03-16T16:09:44.949Z,31.70
2019-03-16T16:15:20.880Z,32.40
2019-03-16T16:20:50.446Z,33.30
2019-03-16T16:26:20.852Z,33.30
2019-03-16T16:31:50.726Z,33.60
2019-03-16T16:37:21.468Z,34.80
2019-03-16T16:42:52.688Z,35.40
2019-03-16T16:48:23.800Z,36.30
2019-03-16T16:53:54.264Z,37.20
2019-03-16T16:59:24.074Z,37.40
2019-03-16T17:04:53.548Z,37.80
2019-03-16T17:10:31.406Z,38.40
2019-03-16T17:16:04.029Z,38.80
2019-03-16T17:21:43.859Z,39.10
2019-03-16T17:27:14.720Z,39.50
2019-03-16T17:32:51.002Z,39.90
2019-03-16T17:38:24.951Z,40.10
2019-03-16T17:43:59.039Z,40.20
2019-03-16T17:49:27.653Z,40.60
2019-03-16T17:54:57.677Z,41.00
2019-03-16T18:00:38.864Z,41.30
2019-03-16T18:06:11.743Z,41.70
2019-03-16T18:11:50.379Z,42.10
2019-03-16T18:17:31.160Z,42.50
2019-03-16T18:23:02.549Z,42.80
2019-03-16T18:28:38.302Z,43.20
2019-03-16T18:34:10.220Z,43.40
2019-03-16T18:39:53.752Z,43.80
2019-03-16T18:45:40.201Z,44.00
2019-03-16T18:51:59.967Z,44.10
2019-03-16T18:57:19.644Z,44.40
2019-03-16T19:02:56.779Z,44.70
2019-03-16T19:08:27.104Z,45.00
2019-03-16T19:13:59.512Z,45.00
2019-03-16T19:19:35.462Z,45.10
2019-03-16T19:25:14.130Z,45.20
2019-03-16T19:30:45.364Z,45.40
2019-03-16T19:36:25.933Z,45.60
2019-03-16T19:42:00.899Z,46.10
2019-03-16T19:47:33.519Z,46.00
2019-03-16T19:53:10.521Z,46.10
2019-03-16T19:58:43.337Z,46.20
2019-03-16T20:04:14.578Z,46.40
2019-03-16T20:09:44.242Z,46.50
2019-03-16T20:15:24.616Z,46.70
2019-03-16T20:21:02.952Z,46.90
2019-03-16T20:32:21.318Z,47.30
2019-03-16T20:37:50.956Z,47.50
2019-03-16T20:43:25.001Z,47.70
2019-03-16T20:48:57.114Z,47.80
2019-03-16T20:54:26.825Z,47.90
2019-03-16T21:00:00.759Z,48.10
2019-03-16T21:05:30.017Z,48.40
2019-03-16T21:10:59.384Z,48.20
2019-03-16T21:16:29.572Z,48.20
2019-03-16T21:21:58.843Z,47.80
2019-03-16T21:27:28.167Z,47.70
2019-03-16T21:32:57.520Z,47.40
2019-03-16T21:38:26.811Z,47.10
2019-03-16T21:43:56.156Z,46.60
2019-03-16T21:49:25.488Z,46.20
2019-03-16T21:54:54.785Z,46.00
2019-03-16T22:00:27.188Z,45.50
2019-03-16T22:05:56.526Z,45.20
2019-03-16T22:11:25.799Z,45.10
2019-03-16T22:16:55.116Z,45.20
2019-03-16T22:22:25.176Z,45.90
2019-03-16T22:27:56.323Z,45.30
2019-03-16T22:33:25.622Z,45.40
2019-03-16T22:38:54.898Z,46.20
2019-03-16T22:44:25.536Z,46.80
2019-03-16T22:49:54.812Z,47.50
2019-03-16T22:55:24.497Z,47.70
2019-03-16T23:00:54.496Z,47.90
2019-03-16T23:06:23.770Z,48.10
2019-03-16T23:11:53.049Z,48.20
2019-03-16T23:17:22.326Z,49.20
2019-03-16T23:22:51.603Z,48.30
2019-03-16T23:28:20.881Z,48.20
2019-03-16T23:33:50.163Z,49.20
2019-03-16T23:39:19.502Z,49.20
2019-03-16T23:44:48.711Z,49.30
2019-03-16T23:50:17.999Z,49.20
2019-03-16T23:55:47.279Z,49.00
